Time;durP1;ratioP1;P1;durP2;ratioP2;P2;SDS_P1;SDS_P2;PMS_P1;PMS_P2;Temp;Humidity;BMP_temperature;BMP_pressure;BME280_temperature;BME280_humidity;BME280_pressure;Samples;Min_cycle;Max_cycle;Signal;HPM_P1;HPM_P2
2022/09/02 00:01:59;;;;;;;2.72;0.88;;;;;;;;;;4993063;28;20458;-66
2022/09/02 00:04:25;;;;;;;1.35;1.05;;;;;;;;;;4993173;28;20501;-66
2022/09/02 00:06:52;;;;;;;2.08;0.77;;;;;;;;;;5060265;28;20062;-66
2022/09/02 00:09:19;;;;;;;1.17;0.90;;;;;;;;;;4992851;28;20022;-66
2022/09/02 00:11:45;;;;;;;0.93;0.93;;;;;;;;;;4992852;28;20037;-66
2022/09/02 00:14:16;;;;;;;1.55;1.00;;;;;;;;;;4992989;28;20019;-66
2022/09/02 00:16:50;;;;;;;;;;;;;;;;;;5060528;28;20437;-67
2022/09/02 00:19:19;;;;;;;0.80;0.80;;;;;;;;;;5094433;28;20246;-66
2022/09/02 00:21:45;;;;;;;1.00;1.00;;;;;;;;;;4992999;28;20071;-66
2022/09/02 00:24:10;;;;;;;1.40;1.23;;;;;;;;;;4992823;28;20031;-66
2022/09/02 00:26:36;;;;;;;1.40;1.10;;;;;;;;;;4992789;28;20026;-65
2022/09/02 00:29:02;;;;;;;1.00;1.00;;;;;;;;;;5077048;28;20072;-65
2022/09/02 00:31:27;;;;;;;1.90;1.70;;;;;;;;;;5073128;28;20063;-66
2022/09/02 00:33:53;;;;;;;1.80;1.30;;;;;;;;;;5074777;28;20024;-65
2022/09/02 00:36:19;;;;;;;2.38;1.58;;;;;;;;;;5074035;28;20103;-66
2022/09/02 00:38:45;;;;;;;3.67;1.45;;;;;;;;;;5073317;28;20174;-66
2022/09/02 00:41:11;;;;;;;2.40;1.30;;;;;;;;;;5073334;28;20094;-66
2022/09/02 00:43:38;;;;;;;4.38;1.45;;;;;;;;;;5074563;28;20475;-67
2022/09/02 00:46:04;;;;;;;2.70;1.52;;;;;;;;;;5074740;28;20048;-67
2022/09/02 00:48:30;;;;;;;1.35;1.15;;;;;;;;;;5074665;28;20458;-67
2022/09/02 00:50:56;;;;;;;1.67;1.52;;;;;;;;;;5074525;28;20518;-66
2022/09/02 00:53:21;;;;;;;4.15;1.60;;;;;;;;;;5074139;28;20036;-66
2022/09/02 00:55:47;;;;;;;1.92;1.58;;;;;;;;;;5074460;28;20024;-67
2022/09/02 00:58:19;;;;;;;1.60;1.50;;;;;;;;;;5074421;28;20044;-67
2022/09/02 01:00:45;;;;;;;1.60;1.15;;;;;;;;;;5074569;28;20063;-67
2022/09/02 01:03:14;;;;;;;1.17;1.08;;;;;;;;;;5074455;28;20474;-66
2022/09/02 01:05:45;;;;;;;1.27;1.10;;;;;;;;;;5074418;28;20456;-66
2022/09/02 01:08:13;;;;;;;1.35;1.25;;;;;;;;;;5073902;28;20395;-67
2022/09/02 01:10:39;;;;;;;1.95;1.20;;;;;;;;;;5073900;28;20021;-67
2022/09/02 01:13:07;;;;;;;1.23;1.10;;;;;;;;;;5073935;28;20476;-66
2022/09/02 01:15:36;;;;;;;2.60;1.00;;;;;;;;;;5073969;28;20016;-66
2022/09/02 01:18:02;;;;;;;1.40;1.30;;;;;;;;;;5074235;28;20047;-67
2022/09/02 01:20:27;;;;;;;1.30;1.17;;;;;;;;;;5072694;28;20019;-66
2022/09/02 01:22:53;;;;;;;1.42;1.25;;;;;;;;;;5074247;28;20356;-66
2022/09/02 01:25:21;;;;;;;1.27;1.15;;;;;;;;;;5074133;28;20460;-66
2022/09/02 01:27:47;;;;;;;1.77;0.90;;;;;;;;;;5074208;28;20046;-66
2022/09/02 01:30:16;;;;;;;2.13;1.00;;;;;;;;;;5073012;28;20448;-66
2022/09/02 01:32:42;;;;;;;4.53;1.13;;;;;;;;;;4993789;28;20038;-66
2022/09/02 01:35:07;;;;;;;1.20;1.10;;;;;;;;;;5059078;28;20030;-65
2022/09/02 01:37:33;;;;;;;1.75;1.15;;;;;;;;;;5075842;28;20386;-66
2022/09/02 01:39:59;;;;;;;1.10;1.05;;;;;;;;;;5058870;28;20113;-66
2022/09/02 01:42:25;;;;;;;1.27;1.17;;;;;;;;;;5075914;28;20113;-65
2022/09/02 01:44:51;;;;;;;0.90;0.90;;;;;;;;;;5059060;28;20484;-65
2022/09/02 01:47:19;;;;;;;1.20;0.98;;;;;;;;;;5059060;28;20130;-65
2022/09/02 01:49:45;;;;;;;1.75;1.13;;;;;;;;;;5061336;28;20034;-65
2022/09/02 01:52:11;;;;;;;1.90;1.10;;;;;;;;;;4995176;28;20060;-65
2022/09/02 01:54:37;;;;;;;2.08;0.98;;;;;;;;;;5062901;28;20065;-65
2022/09/02 01:57:03;;;;;;;1.00;0.90;;;;;;;;;;5079787;28;20412;-65
2022/09/02 01:59:28;;;;;;;1.38;1.27;;;;;;;;;;4995169;28;20019;-66
2022/09/02 02:01:53;;;;;;;1.00;1.00;;;;;;;;;;4995194;28;20026;-65
2022/09/02 02:04:21;;;;;;;1.08;0.98;;;;;;;;;;4995090;28;20022;-65
2022/09/02 02:06:47;;;;;;;1.15;1.00;;;;;;;;;;5062715;28;20037;-66
2022/09/02 02:09:13;;;;;;;1.10;1.00;;;;;;;;;;5062462;28;20022;-66
2022/09/02 02:11:38;;;;;;;1.80;1.10;;;;;;;;;;5062571;28;20041;-65
2022/09/02 02:14:04;;;;;;;1.20;1.00;;;;;;;;;;5062129;28;20014;-65
2022/09/02 02:16:30;;;;;;;3.50;1.20;;;;;;;;;;5079370;28;20041;-66
2022/09/02 02:18:56;;;;;;;1.10;1.00;;;;;;;;;;5062376;28;20022;-65
2022/09/02 02:21:21;;;;;;;1.15;0.98;;;;;;;;;;5079337;28;20023;-66
2022/09/02 02:23:47;;;;;;;2.63;1.17;;;;;;;;;;4994942;28;20072;-66
2022/09/02 02:26:12;;;;;;;1.67;1.00;;;;;;;;;;4994755;28;20034;-66
2022/09/02 02:28:38;;;;;;;1.20;1.10;;;;;;;;;;5061805;28;20026;-66
2022/09/02 02:31:04;;;;;;;1.35;0.93;;;;;;;;;;5079057;28;20041;-66
2022/09/02 02:33:30;;;;;;;1.13;1.05;;;;;;;;;;5062184;28;20382;-66
2022/09/02 02:35:56;;;;;;;0.77;0.77;;;;;;;;;;4994543;28;20057;-66
2022/09/02 02:38:22;;;;;;;2.17;1.00;;;;;;;;;;5062139;28;20029;-66
2022/09/02 02:40:49;;;;;;;1.58;1.15;;;;;;;;;;4993205;28;20027;-66
2022/09/02 02:43:14;;;;;;;1.05;1.02;;;;;;;;;;5061816;28;20067;-66
2022/09/02 02:45:40;;;;;;;1.02;1.00;;;;;;;;;;5078842;28;20041;-66
2022/09/02 02:48:05;;;;;;;1.05;0.95;;;;;;;;;;5061564;28;20027;-66
2022/09/02 02:50:31;;;;;;;0.95;0.88;;;;;;;;;;5062139;28;20030;-67
2022/09/02 02:52:56;;;;;;;1.90;0.95;;;;;;;;;;5061780;28;20022;-65
2022/09/02 02:55:24;;;;;;;2.55;0.95;;;;;;;;;;5061813;28;20388;-66
2022/09/02 02:57:50;;;;;;;1.40;1.27;;;;;;;;;;4994208;28;20101;-66
2022/09/02 03:00:18;;;;;;;1.92;0.95;;;;;;;;;;4993589;28;20046;-65
2022/09/02 03:02:45;;;;;;;1.42;1.05;;;;;;;;;;4994251;28;20023;-66
2022/09/02 03:05:13;;;;;;;1.27;1.17;;;;;;;;;;5078229;28;20038;-66
2022/09/02 03:07:39;;;;;;;1.00;1.00;;;;;;;;;;5061516;28;20113;-66
2022/09/02 03:10:07;;;;;;;1.20;1.10;;;;;;;;;;5078221;28;20061;-66
2022/09/02 03:12:33;;;;;;;2.15;1.10;;;;;;;;;;5061186;28;20461;-66
2022/09/02 03:14:59;;;;;;;1.33;1.00;;;;;;;;;;5078060;28;20034;-66
2022/09/02 03:17:25;;;;;;;0.90;0.90;;;;;;;;;;5061403;28;20355;-66
2022/09/02 03:19:51;;;;;;;1.50;1.40;;;;;;;;;;5061013;28;20031;-66
2022/09/02 03:22:16;;;;;;;2.20;1.00;;;;;;;;;;5061283;28;20023;-66
2022/09/02 03:24:43;;;;;;;1.38;0.93;;;;;;;;;;5077984;28;20439;-66
2022/09/02 03:27:09;;;;;;;1.67;1.02;;;;;;;;;;5061291;28;20022;-66
2022/09/02 03:29:35;;;;;;;1.42;1.30;;;;;;;;;;5061196;28;20037;-67
2022/09/02 03:32:00;;;;;;;0.90;0.90;;;;;;;;;;4993148;28;20457;-66
2022/09/02 03:34:27;;;;;;;1.30;1.02;;;;;;;;;;5061137;28;20022;-65
2022/09/02 03:36:53;;;;;;;2.97;1.40;;;;;;;;;;5060410;28;20473;-66
2022/09/02 03:39:19;;;;;;;1.60;1.05;;;;;;;;;;5077811;28;20046;-66
2022/09/02 03:41:49;;;;;;;3.03;1.08;;;;;;;;;;5060749;28;20037;-66
2022/09/02 03:44:14;;;;;;;1.42;1.00;;;;;;;;;;5077825;28;20033;-67
2022/09/02 03:46:42;;;;;;;1.60;1.33;;;;;;;;;;5060850;28;20018;-66
2022/09/02 03:49:09;;;;;;;1.67;1.45;;;;;;;;;;5061033;28;20042;-66
2022/09/02 03:51:38;;;;;;;1.70;1.40;;;;;;;;;;5060768;28;20079;-66
2022/09/02 03:54:05;;;;;;;2.05;1.35;;;;;;;;;;5077319;28;20034;-66
2022/09/02 03:56:32;;;;;;;2.53;1.20;;;;;;;;;;5060096;28;20473;-63
2022/09/02 03:58:58;;;;;;;2.38;1.15;;;;;;;;;;4993042;28;20031;-62
2022/09/02 04:01:25;;;;;;;1.20;1.08;;;;;;;;;;5060054;28;20023;-62
2022/09/02 04:03:51;;;;;;;1.30;1.20;;;;;;;;;;5077131;28;20031;-62
2022/09/02 04:06:18;;;;;;;0.85;0.85;;;;;;;;;;4992313;28;20022;-64
2022/09/02 04:08:46;;;;;;;0.88;0.88;;;;;;;;;;5076668;28;20056;-64
2022/09/02 04:11:15;;;;;;;1.48;1.15;;;;;;;;;;5058613;28;20022;-63
2022/09/02 04:13:41;;;;;;;1.25;1.00;;;;;;;;;;5059614;28;20039;-64
2022/09/02 04:16:11;;;;;;;1.25;1.13;;;;;;;;;;5059737;28;20025;-62
2022/09/02 04:18:36;;;;;;;1.17;0.85;;;;;;;;;;5076202;28;20125;-63
2022/09/02 04:21:03;;;;;;;1.17;1.00;;;;;;;;;;5059113;28;20079;-63
2022/09/02 04:23:29;;;;;;;1.50;0.80;;;;;;;;;;5076249;28;20030;-63
2022/09/02 04:25:55;;;;;;;1.38;0.93;;;;;;;;;;5059458;28;20032;-64
2022/09/02 04:28:21;;;;;;;2.58;1.00;;;;;;;;;;4992094;28;20127;-63
2022/09/02 04:30:48;;;;;;;1.55;0.93;;;;;;;;;;5059184;28;20038;-63
2022/09/02 04:33:14;;;;;;;0.90;0.90;;;;;;;;;;5059082;28;20087;-63
2022/09/02 04:35:40;;;;;;;1.52;1.02;;;;;;;;;;5057931;28;20065;-64
2022/09/02 04:38:06;;;;;;;1.40;0.93;;;;;;;;;;5074824;28;20481;-64
2022/09/02 04:40:33;;;;;;;1.10;1.00;;;;;;;;;;5057456;28;20374;-63
2022/09/02 04:42:59;;;;;;;2.05;1.00;;;;;;;;;;5058043;28;20037;-63
2022/09/02 04:45:25;;;;;;;1.55;0.98;;;;;;;;;;5058527;28;20018;-64
2022/09/02 04:47:51;;;;;;;1.50;1.40;;;;;;;;;;5075470;28;20028;-64
2022/09/02 04:50:18;;;;;;;0.82;0.82;;;;;;;;;;5058514;28;20018;-64
2022/09/02 04:52:56;;;;;;;1.13;1.02;;;;;;;;;;4990695;28;20041;-64
2022/09/02 04:55:21;;;;;;;1.17;1.08;;;;;;;;;;5058280;28;20034;-64
2022/09/02 04:57:47;;;;;;;2.95;1.05;;;;;;;;;;5058104;28;20416;-64
2022/09/02 05:00:13;;;;;;;1.08;0.95;;;;;;;;;;5057535;28;20048;-64
2022/09/02 05:02:39;;;;;;;1.20;1.13;;;;;;;;;;5057580;28;20030;-64
2022/09/02 05:05:06;;;;;;;1.23;1.13;;;;;;;;;;5058217;28;20394;-62
2022/09/02 05:07:36;;;;;;;2.08;1.02;;;;;;;;;;5057906;28;20022;-64
2022/09/02 05:10:03;;;;;;;1.67;1.05;;;;;;;;;;5057686;28;20054;-64
2022/09/02 05:12:34;;;;;;;1.98;1.00;;;;;;;;;;5057737;28;20023;-65
2022/09/02 05:15:00;;;;;;;1.10;1.00;;;;;;;;;;5074534;28;20057;-63
2022/09/02 05:17:30;;;;;;;2.08;1.02;;;;;;;;;;5057713;28;20030;-64
2022/09/02 05:19:57;;;;;;;2.08;1.10;;;;;;;;;;4990626;28;20033;-63
2022/09/02 05:22:22;;;;;;;1.70;1.17;;;;;;;;;;4990438;28;20374;-64
2022/09/02 05:24:48;;;;;;;1.25;1.15;;;;;;;;;;5074449;28;20023;-64
2022/09/02 05:27:15;;;;;;;1.42;1.30;;;;;;;;;;5057532;28;20022;-64
2022/09/02 05:29:41;;;;;;;2.10;1.30;;;;;;;;;;5074489;28;20022;-63
2022/09/02 05:32:07;;;;;;;1.42;1.30;;;;;;;;;;4989974;28;20038;-64
2022/09/02 05:34:34;;;;;;;3.83;1.30;;;;;;;;;;5074435;28;20037;-63
2022/09/02 05:37:01;;;;;;;1.33;1.23;;;;;;;;;;5057471;28;20109;-64
2022/09/02 05:39:29;;;;;;;2.15;1.30;;;;;;;;;;5074065;28;20030;-63
2022/09/02 05:41:55;;;;;;;1.60;1.50;;;;;;;;;;5057537;28;20014;-64
2022/09/02 05:44:21;;;;;;;2.28;1.30;;;;;;;;;;4990280;28;20075;-63
2022/09/02 05:46:47;;;;;;;1.50;1.40;;;;;;;;;;5057396;28;20444;-64
2022/09/02 05:49:16;;;;;;;2.50;1.40;;;;;;;;;;5074313;28;20596;-64
2022/09/02 05:52:03;;;;;;;1.67;1.58;;;;;;;;;;4990543;28;20038;-64
2022/09/02 05:54:34;;;;;;;1.70;1.60;;;;;;;;;;5074024;28;20053;-64
2022/09/02 05:57:10;;;;;;;3.13;1.20;;;;;;;;;;5074038;28;20478;-63
2022/09/02 05:59:41;;;;;;;1.35;1.25;;;;;;;;;;5056876;28;20026;-64
2022/09/02 06:02:10;;;;;;;2.45;1.20;;;;;;;;;;5074043;28;20043;-63
2022/09/02 06:04:37;;;;;;;2.10;1.10;;;;;;;;;;5057187;28;20032;-64
2022/09/02 06:07:03;;;;;;;2.95;1.40;;;;;;;;;;5073952;28;20070;-64
2022/09/02 06:09:28;;;;;;;1.60;1.50;;;;;;;;;;5057110;28;20263;-63
2022/09/02 06:11:54;;;;;;;4.03;1.50;;;;;;;;;;5057151;28;20053;-64
2022/09/02 06:14:24;;;;;;;2.30;1.52;;;;;;;;;;5057339;28;20025;-64
2022/09/02 06:16:53;;;;;;;2.38;1.45;;;;;;;;;;5073262;28;20029;-64
2022/09/02 06:19:25;;;;;;;1.40;1.30;;;;;;;;;;5057053;28;20105;-62
2022/09/02 06:21:52;;;;;;;1.60;1.30;;;;;;;;;;5074014;28;20030;-62
2022/09/02 06:24:18;;;;;;;2.78;1.20;;;;;;;;;;5057340;28;20026;-63
2022/09/02 06:26:48;;;;;;;1.30;1.20;;;;;;;;;;5075087;28;20499;-63
2022/09/02 06:29:14;;;;;;;2.28;1.30;;;;;;;;;;5074797;28;20281;-64
2022/09/02 06:31:41;;;;;;;1.52;1.42;;;;;;;;;;5037199;28;20396;-64
2022/09/02 06:34:10;;;;;;;1.38;1.23;;;;;;;;;;5055040;28;20036;-63
2022/09/02 06:36:36;;;;;;;2.58;1.10;;;;;;;;;;5077007;28;20020;-62
2022/09/02 06:39:02;;;;;;;3.90;1.67;;;;;;;;;;5059312;28;20467;-62
2022/09/02 06:41:32;;;;;;;2.65;1.20;;;;;;;;;;5059798;28;20352;-64
2022/09/02 06:44:03;;;;;;;1.73;1.30;;;;;;;;;;5058977;28;20021;-64
2022/09/02 06:46:32;;;;;;;1.10;1.00;;;;;;;;;;5059349;28;20021;-62
2022/09/02 06:49:00;;;;;;;1.40;1.30;;;;;;;;;;5058595;28;20476;-63
2022/09/02 06:51:29;;;;;;;1.10;1.00;;;;;;;;;;5058537;28;20032;-64
2022/09/02 06:53:56;;;;;;;1.67;1.30;;;;;;;;;;5075178;28;20025;-63
2022/09/02 06:56:25;;;;;;;2.05;1.17;;;;;;;;;;5075600;28;20551;-63
2022/09/02 06:58:52;;;;;;;5.65;1.35;;;;;;;;;;5058374;28;20472;-63
2022/09/02 07:01:19;;;;;;;1.60;1.10;;;;;;;;;;5074999;28;20028;-63
2022/09/02 07:06:34;;;;;;;1.17;0.90;;;;;;;;;;5058224;28;20024;-62
2022/09/02 07:09:00;;;;;;;2.00;1.10;;;;;;;;;;5058320;28;20028;-63
2022/09/02 07:11:26;;;;;;;1.45;1.00;;;;;;;;;;5058388;28;20020;-63
2022/09/02 07:13:52;;;;;;;3.15;1.10;;;;;;;;;;5058132;28;20021;-64
2022/09/02 07:16:18;;;;;;;1.00;0.90;;;;;;;;;;5058021;28;20017;-62
2022/09/02 07:18:45;;;;;;;1.83;1.10;;;;;;;;;;5057901;28;20039;-62
2022/09/02 07:21:12;;;;;;;1.13;1.02;;;;;;;;;;5057991;28;20016;-64
2022/09/02 07:23:39;;;;;;;0.93;0.80;;;;;;;;;;5057927;28;20511;-62
2022/09/02 07:26:12;;;;;;;1.10;0.82;;;;;;;;;;5075882;28;20380;-64
2022/09/02 07:28:39;;;;;;;1.27;0.90;;;;;;;;;;5057869;28;20040;-64
2022/09/02 07:31:08;;;;;;;0.80;0.80;;;;;;;;;;5047373;28;20045;-63
2022/09/02 07:33:35;;;;;;;2.47;1.00;;;;;;;;;;5034569;28;20124;-64
2022/09/02 07:36:03;;;;;;;0.80;0.80;;;;;;;;;;5034444;28;20022;-63
2022/09/02 07:38:29;;;;;;;0.85;0.85;;;;;;;;;;5034334;28;20037;-62
2022/09/02 07:40:55;;;;;;;0.70;0.70;;;;;;;;;;5034370;28;20017;-64
2022/09/02 07:43:21;;;;;;;1.35;0.63;;;;;;;;;;5034190;28;20025;-63
2022/09/02 07:45:47;;;;;;;1.40;0.80;;;;;;;;;;5033646;28;20021;-64
2022/09/02 07:48:14;;;;;;;2.25;0.75;;;;;;;;;;5033637;28;20030;-64
2022/09/02 07:50:40;;;;;;;0.82;0.60;;;;;;;;;;5035603;28;20021;-63
2022/09/02 07:53:12;;;;;;;1.40;0.77;;;;;;;;;;5034344;28;20064;-63
2022/09/02 07:55:40;;;;;;;0.65;0.57;;;;;;;;;;5034070;28;20036;-64
2022/09/02 07:58:06;;;;;;;1.45;0.70;;;;;;;;;;5034020;28;20022;-63
2022/09/02 08:00:31;;;;;;;1.02;0.70;;;;;;;;;;5034013;28;20033;-64
2022/09/02 08:03:03;;;;;;;0.60;0.50;;;;;;;;;;5034028;28;20025;-63
2022/09/02 08:05:37;;;;;;;1.70;0.70;;;;;;;;;;5033989;28;20099;-64
2022/09/02 08:08:03;;;;;;;1.02;0.52;;;;;;;;;;5034493;28;20025;-64
2022/09/02 08:10:29;;;;;;;1.77;1.50;;;;;;;;;;5034013;28;20025;-64
2022/09/02 08:12:56;;;;;;;0.60;0.60;;;;;;;;;;5033954;28;20060;-63
2022/09/02 08:15:21;;;;;;;0.80;0.70;;;;;;;;;;5033902;28;20028;-64
2022/09/02 08:17:47;;;;;;;0.52;0.52;;;;;;;;;;5034058;28;20025;-63
2022/09/02 08:20:13;;;;;;;0.80;0.80;;;;;;;;;;5033791;28;20032;-65
2022/09/02 08:22:39;;;;;;;1.23;0.70;;;;;;;;;;5033489;28;20029;-63
2022/09/02 08:25:04;;;;;;;0.85;0.85;;;;;;;;;;5033699;28;20014;-64
2022/09/02 08:27:31;;;;;;;1.38;1.27;;;;;;;;;;5033625;28;20478;-64
2022/09/02 08:29:57;;;;;;;0.70;0.70;;;;;;;;;;5033910;28;20116;-67
2022/09/02 08:32:23;;;;;;;0.80;0.75;;;;;;;;;;5064414;28;20037;-67
2022/09/02 08:34:48;;;;;;;1.65;0.90;;;;;;;;;;5073451;28;20047;-67
2022/09/02 08:37:14;;;;;;;2.05;1.38;;;;;;;;;;5073216;28;20037;-66
2022/09/02 08:39:39;;;;;;;15.63;7.30;;;;;;;;;;5073264;28;20099;-66
2022/09/02 08:42:13;;;;;;;2.17;1.50;;;;;;;;;;5073393;28;20362;-66
2022/09/02 08:44:39;;;;;;;1.40;0.77;;;;;;;;;;5073173;28;20036;-66
2022/09/02 08:47:07;;;;;;;2.28;0.70;;;;;;;;;;5073110;28;20035;-66
2022/09/02 08:49:50;;;;;;;0.60;0.60;;;;;;;;;;5055115;28;20103;-67
2022/09/02 08:52:27;;;;;;;3.70;1.48;;;;;;;;;;5072988;28;20064;-66
2022/09/02 08:54:56;;;;;;;2.63;2.28;;;;;;;;;;5072988;28;20056;-66
2022/09/02 08:57:24;;;;;;;2.00;1.48;;;;;;;;;;5054644;28;20019;-67
2022/09/02 08:59:49;;;;;;;0.70;0.70;;;;;;;;;;5073261;28;20035;-66
2022/09/02 09:02:23;;;;;;;0.60;0.60;;;;;;;;;;5072619;28;20020;-66
2022/09/02 09:04:49;;;;;;;1.50;0.70;;;;;;;;;;5072808;28;20029;-66
2022/09/02 09:07:14;;;;;;;0.52;0.52;;;;;;;;;;5072758;28;20096;-66
2022/09/02 09:09:48;;;;;;;0.75;0.70;;;;;;;;;;5054803;28;20035;-66
2022/09/02 09:12:19;;;;;;;1.08;0.65;;;;;;;;;;5072718;28;20106;-66
2022/09/02 09:14:44;;;;;;;0.40;0.40;;;;;;;;;;5072682;28;20503;-66
2022/09/02 09:17:20;;;;;;;0.50;0.50;;;;;;;;;;5072605;28;20060;-66
2022/09/02 09:19:45;;;;;;;0.50;0.50;;;;;;;;;;5072354;28;20055;-66
2022/09/02 09:22:13;;;;;;;0.75;0.70;;;;;;;;;;5072629;28;20017;-66
2022/09/02 09:24:40;;;;;;;0.52;0.52;;;;;;;;;;5072648;28;20434;-67
2022/09/02 09:27:09;;;;;;;1.98;0.50;;;;;;;;;;5072509;28;20028;-66
2022/09/02 09:29:35;;;;;;;0.53;0.47;;;;;;;;;;5072540;28;20024;-67
2022/09/02 09:32:01;;;;;;;1.55;0.50;;;;;;;;;;5072733;28;20106;-66
2022/09/02 09:34:45;;;;;;;1.23;0.50;;;;;;;;;;5072560;28;20491;-66
2022/09/02 09:37:10;;;;;;;0.20;0.20;;;;;;;;;;5072406;28;20103;-67
2022/09/02 09:39:35;;;;;;;0.50;0.50;;;;;;;;;;5072731;28;20421;-66
2022/09/02 09:42:24;;;;;;;2.55;0.50;;;;;;;;;;5072448;28;20025;-66
2022/09/02 09:44:49;;;;;;;1.92;0.40;;;;;;;;;;5071462;28;20554;-67
2022/09/02 09:47:24;;;;;;;0.40;0.38;;;;;;;;;;5054584;28;20025;-67
2022/09/02 09:49:53;;;;;;;0.47;0.40;;;;;;;;;;5072398;28;20124;-66
2022/09/02 09:52:25;;;;;;;1.52;0.60;;;;;;;;;;5072402;28;20043;-66
2022/09/02 09:55:05;;;;;;;0.75;0.45;;;;;;;;;;5072201;28;20020;-66
2022/09/02 09:57:31;;;;;;;0.50;0.30;;;;;;;;;;5071948;28;20028;-66
2022/09/02 09:59:56;;;;;;;2.35;0.50;;;;;;;;;;5072279;28;20043;-66
2022/09/02 10:02:24;;;;;;;2.55;0.60;;;;;;;;;;5072247;28;20383;-66
2022/09/02 10:04:51;;;;;;;0.50;0.40;;;;;;;;;;5054031;28;20544;-66
2022/09/02 10:07:35;;;;;;;0.30;0.30;;;;;;;;;;5072201;28;20388;-66
2022/09/02 10:10:27;;;;;;;5.10;0.60;;;;;;;;;;5073247;28;20424;-66
2022/09/02 10:12:54;;;;;;;2.25;0.60;;;;;;;;;;5071663;28;20037;-66
2022/09/02 10:15:30;;;;;;;2.33;0.45;;;;;;;;;;5076164;28;20051;-66
2022/09/02 10:18:14;;;;;;;0.60;0.60;;;;;;;;;;5076027;28;20040;-66
2022/09/02 10:20:58;;;;;;;0.93;0.45;;;;;;;;;;5075970;28;20033;-66
2022/09/02 10:23:53;;;;;;;1.05;0.60;;;;;;;;;;5075618;28;20105;-67
2022/09/02 10:26:27;;;;;;;1.90;0.57;;;;;;;;;;5054663;28;20040;-64
2022/09/02 10:29:05;;;;;;;2.05;0.55;;;;;;;;;;5058149;28;20413;-63
2022/09/02 10:31:37;;;;;;;0.95;0.50;;;;;;;;;;5045957;28;20041;-63
2022/09/02 10:34:12;;;;;;;1.92;0.60;;;;;;;;;;5034514;28;20083;-62
2022/09/02 10:36:46;;;;;;;0.70;0.40;;;;;;;;;;5034617;28;20495;-64
2022/09/02 10:39:20;;;;;;;0.65;0.45;;;;;;;;;;5035708;28;20531;-64
2022/09/02 10:41:46;;;;;;;0.50;0.50;;;;;;;;;;5035653;28;20426;-64
2022/09/02 10:44:21;;;;;;;0.60;0.50;;;;;;;;;;5035373;28;20080;-64
2022/09/02 10:46:46;;;;;;;2.38;0.60;;;;;;;;;;5035620;28;20033;-64
2022/09/02 10:49:24;;;;;;;3.10;0.50;;;;;;;;;;5035528;28;20028;-64
2022/09/02 10:52:04;;;;;;;0.82;0.65;;;;;;;;;;5035491;28;20041;-64
2022/09/02 10:54:40;;;;;;;1.80;0.55;;;;;;;;;;5035434;28;20099;-63
2022/09/02 10:57:10;;;;;;;0.75;0.50;;;;;;;;;;5035105;28;20095;-64
2022/09/02 10:59:41;;;;;;;0.50;0.50;;;;;;;;;;5035339;28;20415;-64
2022/09/02 11:02:25;;;;;;;0.40;0.40;;;;;;;;;;5035041;28;20030;-64
2022/09/02 11:04:58;;;;;;;2.78;0.50;;;;;;;;;;5035286;28;20029;-64
2022/09/02 11:07:28;;;;;;;2.10;0.50;;;;;;;;;;5033761;28;20511;-64
2022/09/02 11:09:58;;;;;;;0.32;0.30;;;;;;;;;;5033739;28;20030;-62
2022/09/02 11:12:36;;;;;;;0.50;0.50;;;;;;;;;;5034631;28;20044;-64
2022/09/02 11:15:09;;;;;;;0.40;0.40;;;;;;;;;;5034776;28;20040;-69
2022/09/02 11:17:44;;;;;;;0.55;0.50;;;;;;;;;;5034949;28;20030;-68
2022/09/02 11:20:18;;;;;;;1.70;0.45;;;;;;;;;;5034710;28;20537;-67
2022/09/02 11:22:43;;;;;;;0.43;0.40;;;;;;;;;;5034915;28;20025;-67
2022/09/02 11:25:15;;;;;;;1.45;0.65;;;;;;;;;;5034868;28;20024;-67
2022/09/02 11:27:56;;;;;;;0.93;0.60;;;;;;;;;;5032956;28;20048;-67
2022/09/02 11:30:23;;;;;;;0.55;0.55;;;;;;;;;;5034745;28;20041;-67
2022/09/02 11:32:58;;;;;;;0.40;0.40;;;;;;;;;;5072338;28;20419;-65
2022/09/02 11:35:32;;;;;;;0.52;0.50;;;;;;;;;;5074661;28;20040;-65
2022/09/02 11:38:00;;;;;;;0.65;0.65;;;;;;;;;;5074474;28;20111;-65
2022/09/02 11:40:47;;;;;;;0.50;0.50;;;;;;;;;;5074536;28;20044;-66
2022/09/02 11:43:15;;;;;;;0.30;0.30;;;;;;;;;;5024208;28;20037;-65
2022/09/02 11:45:40;;;;;;;1.33;0.50;;;;;;;;;;5074176;28;20024;-65
2022/09/02 11:48:13;;;;;;;0.30;0.30;;;;;;;;;;5074389;28;20108;-65
2022/09/02 11:50:38;;;;;;;0.50;0.50;;;;;;;;;;5074320;28;20029;-65
2022/09/02 11:53:22;;;;;;;0.82;0.65;;;;;;;;;;5074314;28;20024;-65
2022/09/02 11:55:48;;;;;;;0.50;0.50;;;;;;;;;;5074022;28;20036;-65
2022/09/02 11:58:33;;;;;;;0.60;0.60;;;;;;;;;;5074149;28;20074;-65
2022/09/02 12:01:02;;;;;;;3.30;0.60;;;;;;;;;;5073711;28;20037;-62
2022/09/02 12:03:30;;;;;;;1.63;0.82;;;;;;;;;;5073726;28;20096;-62
2022/09/02 12:06:15;;;;;;;1.85;1.05;;;;;;;;;;5074108;28;20365;-62
2022/09/02 12:08:42;;;;;;;0.98;0.85;;;;;;;;;;5075289;28;20383;-61
2022/09/02 12:11:10;;;;;;;0.68;0.68;;;;;;;;;;5074981;28;20013;-61
2022/09/02 12:13:37;;;;;;;0.98;0.70;;;;;;;;;;5073937;28;20029;-62
2022/09/02 12:16:14;;;;;;;0.85;0.50;;;;;;;;;;5073966;28;20468;-62
2022/09/02 12:18:52;;;;;;;0.93;0.60;;;;;;;;;;5055981;28;20056;-62
2022/09/02 12:21:19;;;;;;;1.25;0.60;;;;;;;;;;5072771;28;20024;-62
2022/09/02 12:23:48;;;;;;;0.60;0.60;;;;;;;;;;5072685;28;20028;-60
2022/09/02 12:26:14;;;;;;;0.60;0.60;;;;;;;;;;5072573;28;20032;-61
2022/09/02 12:28:41;;;;;;;1.20;1.10;;;;;;;;;;5074259;28;20017;-61
2022/09/02 12:31:08;;;;;;;0.77;0.60;;;;;;;;;;5056581;28;20049;-61
2022/09/02 12:33:33;;;;;;;0.60;0.60;;;;;;;;;;5073979;28;20032;-60
2022/09/02 12:35:59;;;;;;;1.52;0.73;;;;;;;;;;5074448;28;20033;-62
2022/09/02 12:38:29;;;;;;;0.60;0.60;;;;;;;;;;5074613;28;20073;-62
2022/09/02 12:40:59;;;;;;;0.53;0.53;;;;;;;;;;5074687;28;20037;-62
2022/09/02 12:43:46;;;;;;;0.98;0.50;;;;;;;;;;5074406;28;20091;-61
2022/09/02 12:46:11;;;;;;;2.05;0.70;;;;;;;;;;5074280;28;20025;-60
2022/09/02 12:48:40;;;;;;;1.15;0.50;;;;;;;;;;5074203;28;20028;-61
2022/09/02 12:51:07;;;;;;;1.83;0.63;;;;;;;;;;5074245;28;20494;-65
2022/09/02 12:53:42;;;;;;;0.98;0.70;;;;;;;;;;5074165;28;20024;-65
2022/09/02 12:56:14;;;;;;;0.50;0.50;;;;;;;;;;5056360;28;20035;-64
2022/09/02 12:58:56;;;;;;;0.73;0.60;;;;;;;;;;5074006;28;20071;-65
2022/09/02 13:01:40;;;;;;;0.57;0.57;;;;;;;;;;5074070;28;20021;-65
2022/09/02 13:04:29;;;;;;;0.85;0.77;;;;;;;;;;5073993;28;20460;-65
2022/09/02 13:07:08;;;;;;;4.10;0.70;;;;;;;;;;5073187;28;20033;-65
2022/09/02 13:09:40;;;;;;;0.50;0.50;;;;;;;;;;5073926;28;20035;-65
2022/09/02 13:12:24;;;;;;;1.15;0.50;;;;;;;;;;5055882;28;20040;-65
2022/09/02 13:14:56;;;;;;;1.20;0.50;;;;;;;;;;5072883;28;20407;-65
2022/09/02 13:17:28;;;;;;;2.10;0.75;;;;;;;;;;5072517;28;20472;-64
2022/09/02 13:19:56;;;;;;;1.08;0.77;;;;;;;;;;5072535;28;20020;-71
2022/09/02 13:22:22;;;;;;;0.73;0.55;;;;;;;;;;5073145;28;20104;-65
2022/09/02 13:25:06;;;;;;;1.45;0.50;;;;;;;;;;5073343;28;20025;-64
2022/09/02 13:27:40;;;;;;;1.83;0.70;;;;;;;;;;5073360;28;20027;-66
2022/09/02 13:30:09;;;;;;;2.05;0.50;;;;;;;;;;5073316;28;20678;-65
2022/09/02 13:32:36;;;;;;;1.48;0.63;;;;;;;;;;5073229;28;20048;-66
2022/09/02 13:35:04;;;;;;;1.10;0.60;;;;;;;;;;5073336;28;20020;-66
2022/09/02 13:37:34;;;;;;;0.80;0.65;;;;;;;;;;5055393;28;20029;-62
2022/09/02 13:40:02;;;;;;;3.20;0.75;;;;;;;;;;5073449;28;20109;-62
2022/09/02 13:42:29;;;;;;;0.85;0.85;;;;;;;;;;5073222;28;20490;-62
2022/09/02 13:45:11;;;;;;;1.48;0.90;;;;;;;;;;5073053;28;20024;-62
2022/09/02 13:47:40;;;;;;;1.27;0.80;;;;;;;;;;5072947;28;20498;-61
2022/09/02 13:50:05;;;;;;;1.90;1.00;;;;;;;;;;5073234;28;20040;-61
2022/09/02 13:52:31;;;;;;;0.70;0.70;;;;;;;;;;5073095;28;20663;-62
2022/09/02 13:54:58;;;;;;;1.48;0.70;;;;;;;;;;5055193;28;20048;-62
2022/09/02 13:57:25;;;;;;;1.00;0.70;;;;;;;;;;5072932;28;20029;-64
2022/09/02 13:59:52;;;;;;;2.47;0.60;;;;;;;;;;5072905;28;20027;-63
2022/09/02 14:02:31;;;;;;;0.63;0.50;;;;;;;;;;5068526;28;20017;-64
2022/09/02 14:04:56;;;;;;;0.40;0.40;;;;;;;;;;5069378;28;20046;-63
2022/09/02 14:07:27;;;;;;;2.20;0.50;;;;;;;;;;5069763;28;20459;-63
2022/09/02 14:09:53;;;;;;;0.70;0.63;;;;;;;;;;5068693;28;20039;-63
2022/09/02 14:12:19;;;;;;;0.88;0.60;;;;;;;;;;5071550;28;20394;-64
2022/09/02 14:14:44;;;;;;;0.57;0.57;;;;;;;;;;5072053;28;20020;-63
2022/09/02 14:17:23;;;;;;;0.75;0.60;;;;;;;;;;5072037;28;20027;-64
2022/09/02 14:19:49;;;;;;;0.52;0.45;;;;;;;;;;5072308;28;20039;-64
2022/09/02 14:22:23;;;;;;;0.50;0.50;;;;;;;;;;5053925;28;20028;-64
2022/09/02 14:24:48;;;;;;;1.02;0.70;;;;;;;;;;5072084;28;20095;-64
2022/09/02 14:27:18;;;;;;;0.90;0.52;;;;;;;;;;5072317;28;20407;-64
2022/09/02 14:29:45;;;;;;;0.60;0.60;;;;;;;;;;5071990;28;20033;-64
2022/09/02 14:32:24;;;;;;;1.10;0.80;;;;;;;;;;5072541;28;20075;-62
2022/09/02 14:35:08;;;;;;;0.70;0.70;;;;;;;;;;5072504;28;20507;-65
2022/09/02 14:37:45;;;;;;;16.58;15.13;;;;;;;;;;5072350;28;20036;-64
2022/09/02 14:40:11;;;;;;;17.88;16.02;;;;;;;;;;5072175;28;20024;-64
2022/09/02 14:42:50;;;;;;;2.03;1.00;;;;;;;;;;5072030;28;20062;-64
2022/09/02 14:45:33;;;;;;;2.30;0.68;;;;;;;;;;5054809;28;20107;-64
2022/09/02 14:48:00;;;;;;;2.15;0.70;;;;;;;;;;5071720;28;20035;-64
2022/09/02 14:50:29;;;;;;;1.65;0.52;;;;;;;;;;5071779;28;20507;-64
2022/09/02 14:53:02;;;;;;;1.55;0.70;;;;;;;;;;5071193;28;20031;-65
2022/09/02 14:55:44;;;;;;;2.05;1.95;;;;;;;;;;5070142;28;20075;-64
2022/09/02 14:58:10;;;;;;;1.42;1.00;;;;;;;;;;5073354;28;20040;-64